Time;durP1;ratioP1;P1;durP2;ratioP2;P2;SDS_P1;SDS_P2;PMS_P1;PMS_P2;Temp;Humidity;BMP_temperature;BMP_pressure;BME280_temperature;BME280_humidity;BME280_pressure;Samples;Min_cycle;Max_cycle;Signal;HPM_P1;HPM_P2
2022/08/11 00:01:09;;;;;;;;;;;;;;;;;;7370923;19;772;-42
2022/08/11 00:03:37;;;;;;;;;;;;;;;;;;7371585;19;829;-41
2022/08/11 00:06:05;;;;;;;;;;;;;;;;;;7372516;19;883;-42
2022/08/11 00:08:33;;;;;;;;;;;;;;;;;;7371479;19;1334;-43
2022/08/11 00:11:01;;;;;;;;;;;;;;;;;;7375660;19;879;-43
2022/08/11 00:13:30;;;;;;;;;;;;;;;;;;7377694;19;1857;-42
2022/08/11 00:15:58;;;;;;;;;;;;;;;;;;7380882;19;782;-41
2022/08/11 00:18:26;;;;;;;;;;;;;;;;;;7381306;19;1310;-43
2022/08/11 00:20:54;;;;;;;;;;;;;;;;;;7382679;19;1002;-42
2022/08/11 00:23:22;;;;;;;;;;;;;;;;;;7380080;19;881;-42
2022/08/11 00:25:50;;;;;;;;;;;;;;;;;;7374192;19;870;-43
2022/08/11 00:28:18;;;;;;;;;;;;;;;;;;7372278;19;1321;-46
2022/08/11 00:30:47;;;;;;;;;;;;;;;;;;7385263;19;1878;-42
2022/08/11 00:33:15;;;;;;;;;;;;;;;;;;7384783;19;897;-42
2022/08/11 00:35:44;;;;;;;;;;;;;;;;;;7381100;19;1810;-41
2022/08/11 00:38:12;;;;;;;;;;;;;;;;;;7380433;19;1241;-44
2022/08/11 00:40:40;;;;;;;;;;;;;;;;;;7374783;19;1897;-41
2022/08/11 00:43:08;;;;;;;;;;;;;;;;;;7370165;19;812;-41
2022/08/11 00:45:36;;;;;;;;;;;;;;;;;;7369887;19;795;-42
2022/08/11 00:48:04;;;;;;;;;;;;;;;;;;7371995;19;1911;-43
2022/08/11 00:50:32;;;;;;;;;;;;;;;;;;7369087;19;820;-42
2022/08/11 00:53:01;;;;;;;;;;;;;;;;;;7369372;19;845;-41
2022/08/11 00:55:29;;;;;;;;;;;;;;;;;;7367994;19;1845;-42
2022/08/11 00:57:58;;;;;;;;;;;;;;;;;;7366964;19;1336;-42
2022/08/11 01:00:26;;;;;;;;;;;;;;;;;;7368576;19;786;-41
2022/08/11 01:02:54;;;;;;;;;;;;;;;;;;7370119;19;1844;-41
2022/08/11 01:05:22;;;;;;;;;;;;;;;;;;7370074;19;708;-42
2022/08/11 01:07:50;;;;;;;;;;;;;;;;;;7367801;19;1367;-41
2022/08/11 01:10:18;;;;;;;;;;;;;;;;;;7368311;19;807;-44
2022/08/11 01:12:46;;;;;;;;;;;;;;;;;;7372831;19;1974;-41
2022/08/11 01:15:15;;;;;;;;;;;;;;;;;;7366062;19;1834;-42
2022/08/11 01:17:43;;;;;;;;;;;;;;;;;;7371033;19;1336;-41
2022/08/11 01:20:11;;;;;;;;;;;;;;;;;;7373410;19;1859;-40
2022/08/11 01:22:39;;;;;;;;;;;;;;;;;;7371385;19;851;-40
2022/08/11 01:25:07;;;;;;;;;;;;;;;;;;7372129;19;795;-40
2022/08/11 01:27:35;;;;;;;;;;;;;;;;;;7368595;19;1294;-40
2022/08/11 01:30:04;;;;;;;;;;;;;;;;;;7369013;19;799;-43
2022/08/11 01:32:32;;;;;;;;;;;;;;;;;;7368737;19;871;-40
2022/08/11 01:35:00;;;;;;;;;;;;;;;;;;7365789;19;1861;-40
2022/08/11 01:37:28;;;;;;;;;;;;;;;;;;7371428;19;2012;-41
2022/08/11 01:39:56;;;;;;;;;;;;;;;;;;7367868;19;894;-40
2022/08/11 01:45:05;;;;;;;;;;;;;;;;;;7368050;19;837;-42
2022/08/11 01:50:14;;;;;;;;;;;;;;;;;;7367115;19;959;-41
2022/08/11 01:52:42;;;;;;;;;;;;;;;;;;7369356;19;1862;-41
2022/08/11 01:55:10;;;;;;;;;;;;;;;;;;7365700;19;1920;-42
2022/08/11 01:57:38;;;;;;;;;;;;;;;;;;7365142;19;1231;-42
2022/08/11 02:00:06;;;;;;;;;;;;;;;;;;7366366;19;826;-41
2022/08/11 02:02:52;;;;;;;;;;;;;;;;;;7367518;19;831;-40
2022/08/11 02:05:20;;;;;;;;;;;;;;;;;;7367135;19;745;-40
2022/08/11 02:07:48;;;;;;;;;;;;;;;;;;7365868;19;1309;-40
2022/08/11 02:13:00;;;;;;;;;;;;;;;;;;7364858;19;1076;-40
2022/08/11 02:15:28;;;;;;;;;;;;;;;;;;7365836;19;1839;-40
2022/08/11 02:17:56;;;;;;;;;;;;;;;;;;7365829;19;1347;-40
2022/08/11 02:25:46;;;;;;;;;;;;;;;;;;7366621;19;1860;-40
2022/08/11 02:28:14;;;;;;;;;;;;;;;;;;7362218;19;1351;-41
2022/08/11 02:30:42;;;;;;;;;;;;;;;;;;7366487;19;806;-42
2022/08/11 02:33:22;;;;;;;;;;;;;;;;;;7369662;19;1855;-42
2022/08/11 02:35:50;;;;;;;;;;;;;;;;;;7366708;19;1819;-41
2022/08/11 02:38:20;;;;;;;;;;;;;;;;;;7368440;19;1286;-41
2022/08/11 02:40:48;;;;;;;;;;;;;;;;;;7366963;19;895;-41
2022/08/11 02:43:14;;;;;;;;;;;;;;;;;;7369530;19;1830;-44
2022/08/11 02:45:45;;;;;;;;;;;;;;;;;;7366379;19;950;-40
2022/08/11 02:50:53;;;;;;;;;;;;;;;;;;7366933;19;862;-44
2022/08/11 02:53:23;;;;;;;;;;;;;;;;;;7365328;19;732;-41
2022/08/11 02:55:51;;;;;;;;;;;;;;;;;;7363707;19;1849;-41
2022/08/11 02:58:20;;;;;;;;;;;;;;;;;;7363663;19;1870;-41
2022/08/11 03:00:48;;;;;;;;;;;;;;;;;;7366072;19;859;-43
2022/08/11 03:03:16;;;;;;;;;;;;;;;;;;7364752;19;834;-40
2022/08/11 03:05:44;;;;;;;;;;;;;;;;;;7365472;19;848;-41
2022/08/11 03:08:12;;;;;;;;;;;;;;;;;;7365391;19;1662;-42
2022/08/11 03:10:40;;;;;;;;;;;;;;;;;;7368216;19;1443;-42
2022/08/11 03:18:32;;;;;;;;;;;;;;;;;;7359674;19;1258;-43
2022/08/11 03:21:01;;;;;;;;;;;;;;;;;;7364307;19;819;-41
2022/08/11 03:23:29;;;;;;;;;;;;;;;;;;7364932;19;813;-39
2022/08/11 03:25:57;;;;;;;;;;;;;;;;;;7364464;19;801;-41
2022/08/11 03:28:25;;;;;;;;;;;;;;;;;;7361847;19;1262;-40
2022/08/11 03:30:53;;;;;;;;;;;;;;;;;;7364773;19;1843;-40
2022/08/11 03:36:02;;;;;;;;;;;;;;;;;;7363417;19;1846;-40
2022/08/11 03:38:30;;;;;;;;;;;;;;;;;;7365823;19;1282;-41
2022/08/11 03:43:39;;;;;;;;;;;;;;;;;;7374349;19;1324;-40
2022/08/11 03:46:07;;;;;;;;;;;;;;;;;;7371583;19;880;-41
2022/08/11 03:48:36;;;;;;;;;;;;;;;;;;7371303;19;1905;-40
2022/08/11 03:51:04;;;;;;;;;;;;;;;;;;7370763;19;794;-41
2022/08/11 03:53:33;;;;;;;;;;;;;;;;;;7371571;19;825;-41
2022/08/11 03:56:01;;;;;;;;;;;;;;;;;;7369166;19;1826;-41
2022/08/11 03:58:30;;;;;;;;;;;;;;;;;;7368623;19;1342;-41
2022/08/11 04:00:58;;;;;;;;;;;;;;;;;;7370540;19;792;-41
2022/08/11 04:03:26;;;;;;;;;;;;;;;;;;7371926;19;804;-43
2022/08/11 04:05:55;;;;;;;;;;;;;;;;;;7374094;19;1854;-42
2022/08/11 04:08:23;;;;;;;;;;;;;;;;;;7368688;19;1270;-40
2022/08/11 04:10:51;;;;;;;;;;;;;;;;;;7372493;19;873;-40
2022/08/11 04:13:19;;;;;;;;;;;;;;;;;;7374007;19;1090;-40
2022/08/11 04:16:01;;;;;;;;;;;;;;;;;;7370560;19;1843;-41
2022/08/11 04:18:29;;;;;;;;;;;;;;;;;;7369410;19;1294;-41
2022/08/11 04:20:57;;;;;;;;;;;;;;;;;;7371887;19;1864;-41
2022/08/11 04:23:25;;;;;;;;;;;;;;;;;;7371648;19;739;-41
2022/08/11 04:25:53;;;;;;;;;;;;;;;;;;7371305;19;816;-41
2022/08/11 04:28:21;;;;;;;;;;;;;;;;;;7370667;19;1321;-41
2022/08/11 04:30:49;;;;;;;;;;;;;;;;;;7374856;19;924;-41
2022/08/11 04:33:17;;;;;;;;;;;;;;;;;;7379889;19;843;-41
2022/08/11 04:35:46;;;;;;;;;;;;;;;;;;7382166;19;1849;-41
2022/08/11 04:38:14;;;;;;;;;;;;;;;;;;7383725;19;1784;-41
2022/08/11 04:40:42;;;;;;;;;;;;;;;;;;7375951;19;869;-40
2022/08/11 04:43:19;;;;;;;;;;;;;;;;;;7368675;19;958;-41
2022/08/11 04:45:48;;;;;;;;;;;;;;;;;;7370309;19;814;-41
2022/08/11 05:01:45;;;;;;;;;;;;;;;;;;7369326;19;829;-41
2022/08/11 05:05:29;;;;;;;;;;;;;;;;;;7369791;19;878;-40
2022/08/11 05:07:01;;;;;;;;;;;;;;;;;;7368750;19;1829;-40
2022/08/11 05:09:30;;;;;;;;;;;;;;;;;;7368499;19;1923;-39
2022/08/11 05:11:58;;;;;;;;;;;;;;;;;;7375715;19;1967;-37
2022/08/11 05:35:51;;;;;;;;;;;;;;;;;;7369394;19;1842;-37
2022/08/11 05:57:03;;;;;;;;;;;;;;;;;;7369795;19;787;-38
2022/08/11 05:59:31;;;;;;;;;;;;;;;;;;7367951;19;1642;-38
2022/08/11 06:01:59;;;;;;;;;;;;;;;;;;7371441;19;838;-38
2022/08/11 06:04:27;;;;;;;;;;;;;;;;;;7371933;19;892;-38
2022/08/11 06:06:56;;;;;;;;;;;;;;;;;;7371568;19;833;-38
2022/08/11 06:09:24;;;;;;;;;;;;;;;;;;7368632;19;1324;-38
2022/08/11 06:11:52;;;;;;;;;;;;;;;;;;7370896;19;1131;-38
2022/08/11 06:14:20;;;;;;;;;;;;;;;;;;7370178;19;823;-38
2022/08/11 06:16:49;;;;;;;;;;;;;;;;;;7368606;19;1869;-38
2022/08/11 06:19:17;;;;;;;;;;;;;;;;;;7368495;19;2127;-38
2022/08/11 06:21:45;;;;;;;;;;;;;;;;;;7369775;19;790;-38
2022/08/11 06:24:13;;;;;;;;;;;;;;;;;;7371230;19;830;-38
2022/08/11 06:26:41;;;;;;;;;;;;;;;;;;7371389;19;872;-38
2022/08/11 06:29:09;;;;;;;;;;;;;;;;;;7368526;19;1345;-38
2022/08/11 06:31:37;;;;;;;;;;;;;;;;;;7371033;19;848;-38
2022/08/11 06:34:06;;;;;;;;;;;;;;;;;;7372367;19;1884;-37
2022/08/11 06:36:34;;;;;;;;;;;;;;;;;;7368461;19;1856;-38
2022/08/11 06:39:02;;;;;;;;;;;;;;;;;;7366702;19;1349;-37
2022/08/11 06:41:33;;;;;;;;;;;;;;;;;;7370860;19;819;-38
2022/08/11 06:44:04;;;;;;;;;;;;;;;;;;7370286;19;861;-38
2022/08/11 06:46:35;;;;;;;;;;;;;;;;;;7371597;19;1394;-38
2022/08/11 06:49:04;;;;;;;;;;;;;;;;;;7368239;19;1361;-38
2022/08/11 06:51:29;;;;;;;;;;;;;;;;;;7374640;19;1859;-37
2022/08/11 06:53:59;;;;;;;;;;;;;;;;;;7371667;19;763;-39
2022/08/11 07:01:48;;;;;;;;;;;;;;;;;;7371992;19;830;-38
2022/08/11 07:04:16;;;;;;;;;;;;;;;;;;7370617;19;807;-38
2022/08/11 07:06:44;;;;;;;;;;;;;;;;;;7370430;19;1844;-38
2022/08/11 07:17:14;;;;;;;;;;;;;;;;;;7374131;19;1853;-38
2022/08/11 07:30:25;;;;;;;;;;;;;;;;;;7375326;19;841;-38
2022/08/11 07:32:53;;;;;;;;;;;;;;;;;;7376692;19;1021;-38
2022/08/11 07:35:21;;;;;;;;;;;;;;;;;;7380298;19;1875;-39
2022/08/11 07:37:49;;;;;;;;;;;;;;;;;;7377035;19;1701;-38
2022/08/11 07:40:17;;;;;;;;;;;;;;;;;;7376944;19;1385;-40
2022/08/11 07:42:46;;;;;;;;;;;;;;;;;;7373657;19;821;-38
2022/08/11 07:53:16;;;;;;;;;;;;;;;;;;7376453;19;813;-38
2022/08/11 07:55:45;;;;;;;;;;;;;;;;;;7375305;19;1857;-40
2022/08/11 08:19:38;;;;;;;;;;;;;;;;;;7372226;19;1289;-40
2022/08/11 08:22:06;;;;;;;;;;;;;;;;;;7374375;19;822;-38
2022/08/11 08:24:34;;;;;;;;;;;;;;;;;;7371388;19;821;-38
2022/08/11 08:27:02;;;;;;;;;;;;;;;;;;7373609;19;854;-38
2022/08/11 08:32:12;;;;;;;;;;;;;;;;;;7374942;19;840;-39
2022/08/11 08:34:40;;;;;;;;;;;;;;;;;;7373779;19;1385;-38
2022/08/11 08:37:08;;;;;;;;;;;;;;;;;;7371944;19;1860;-39
2022/08/11 08:39:36;;;;;;;;;;;;;;;;;;7371258;19;1341;-38
2022/08/11 08:42:05;;;;;;;;;;;;;;;;;;7373080;19;774;-38
2022/08/11 08:44:33;;;;;;;;;;;;;;;;;;7374352;19;831;-39
2022/08/11 08:47:02;;;;;;;;;;;;;;;;;;7374773;19;1893;-39
2022/08/11 08:49:30;;;;;;;;;;;;;;;;;;7371439;19;1282;-40
2022/08/11 08:51:58;;;;;;;;;;;;;;;;;;7373625;19;1681;-38
2022/08/11 08:54:26;;;;;;;;;;;;;;;;;;7375200;19;774;-39
2022/08/11 08:56:54;;;;;;;;;;;;;;;;;;7371015;19;1842;-39
2022/08/11 08:59:22;;;;;;;;;;;;;;;;;;7371267;19;1411;-39
2022/08/11 09:01:50;;;;;;;;;;;;;;;;;;7376673;19;1599;-39
2022/08/11 09:04:19;;;;;;;;;;;;;;;;;;7373766;19;828;-38
2022/08/11 09:06:48;;;;;;;;;;;;;;;;;;7373399;19;874;-39
2022/08/11 09:09:16;;;;;;;;;;;;;;;;;;7370195;19;1301;-39
2022/08/11 09:11:54;;;;;;;;;;;;;;;;;;7372638;19;865;-39
2022/08/11 09:14:22;;;;;;;;;;;;;;;;;;7372605;19;1827;-38
2022/08/11 09:16:50;;;;;;;;;;;;;;;;;;7370767;19;1822;-39
2022/08/11 09:19:18;;;;;;;;;;;;;;;;;;7369952;19;1273;-39
2022/08/11 09:26:57;;;;;;;;;;;;;;;;;;7372710;19;803;-38
2022/08/11 09:27:15;;;;;;;;;;;;;;;;;;7372321;19;1983;-39
2022/08/11 09:29:44;;;;;;;;;;;;;;;;;;7369254;19;1320;-38
2022/08/11 09:32:13;;;;;;;;;;;;;;;;;;7374410;19;1640;-44
2022/08/11 09:34:43;;;;;;;;;;;;;;;;;;7371762;19;812;-39
2022/08/11 09:45:12;;;;;;;;;;;;;;;;;;7371539;19;1615;-39
2022/08/11 09:47:41;;;;;;;;;;;;;;;;;;7372894;19;1900;-39
2022/08/11 09:50:09;;;;;;;;;;;;;;;;;;7371245;19;1908;-39
2022/08/11 09:52:37;;;;;;;;;;;;;;;;;;7371593;19;874;-39
2022/08/11 09:55:09;;;;;;;;;;;;;;;;;;7371602;19;818;-42
2022/08/11 10:00:19;;;;;;;;;;;;;;;;;;7370379;19;782;-36
2022/08/11 10:02:47;;;;;;;;;;;;;;;;;;7369761;19;807;-39
2022/08/11 10:07:56;;;;;;;;;;;;;;;;;;7369710;19;1304;-39
2022/08/11 10:10:24;;;;;;;;;;;;;;;;;;7368924;19;738;-39
2022/08/11 10:12:52;;;;;;;;;;;;;;;;;;7372582;19;1957;-40
2022/08/11 10:15:33;;;;;;;;;;;;;;;;;;7367809;19;2016;-39
2022/08/11 10:20:41;;;;;;;;;;;;;;;;;;7371512;19;1848;-38
2022/08/11 10:28:31;;;;;;;;;;;;;;;;;;7371585;19;1790;-39
2022/08/11 10:36:23;;;;;;;;;;;;;;;;;;7367662;19;2810;-39
2022/08/11 10:38:52;;;;;;;;;;;;;;;;;;7366882;19;1285;-40
2022/08/11 10:44:03;;;;;;;;;;;;;;;;;;7367757;19;1158;-39
2022/08/11 10:49:12;;;;;;;;;;;;;;;;;;7370349;19;1831;-39
2022/08/11 10:59:42;;;;;;;;;;;;;;;;;;7365899;19;1335;-39
2022/08/11 11:02:12;;;;;;;;;;;;;;;;;;7370907;19;1581;-39
2022/08/11 11:04:40;;;;;;;;;;;;;;;;;;7368862;19;788;-39
2022/08/11 11:07:13;;;;;;;;;;;;;;;;;;7368496;19;853;-39
2022/08/11 11:09:42;;;;;;;;;;;;;;;;;;7362970;19;1767;-41
2022/08/11 11:20:12;;;;;;;;;;;;;;;;;;7365726;19;1293;-42
2022/08/11 11:22:41;;;;;;;;;;;;;;;;;;7367914;19;807;-41
2022/08/11 11:25:09;;;;;;;;;;;;;;;;;;7366675;19;823;-41
2022/08/11 11:27:37;;;;;;;;;;;;;;;;;;7367845;19;871;-40
2022/08/11 11:30:05;;;;;;;;;;;;;;;;;;7366833;19;1238;-40
2022/08/11 11:32:33;;;;;;;;;;;;;;;;;;7367836;19;832;-41
2022/08/11 11:35:02;;;;;;;;;;;;;;;;;;7368295;19;1930;-41
2022/08/11 11:37:30;;;;;;;;;;;;;;;;;;7364541;19;1849;-42
2022/08/11 11:39:58;;;;;;;;;;;;;;;;;;7366572;19;1282;-41
2022/08/11 11:42:27;;;;;;;;;;;;;;;;;;7366350;19;856;-41
2022/08/11 11:44:55;;;;;;;;;;;;;;;;;;7365671;19;838;-42
2022/08/11 11:47:23;;;;;;;;;;;;;;;;;;7366183;19;767;-41
2022/08/11 11:49:53;;;;;;;;;;;;;;;;;;7365959;19;1365;-41
2022/08/11 11:52:21;;;;;;;;;;;;;;;;;;7368746;19;1876;-42
2022/08/11 11:54:49;;;;;;;;;;;;;;;;;;7366382;19;809;-41
2022/08/11 12:02:38;;;;;;;;;;;;;;;;;;7371684;19;746;-41
2022/08/11 12:05:07;;;;;;;;;;;;;;;;;;7374403;19;835;-42
2022/08/11 12:10:15;;;;;;;;;;;;;;;;;;7370605;19;1254;-40
2022/08/11 12:15:24;;;;;;;;;;;;;;;;;;7372484;19;788;-41
2022/08/11 12:17:52;;;;;;;;;;;;;;;;;;7371141;19;1858;-40
2022/08/11 12:20:20;;;;;;;;;;;;;;;;;;7370767;19;1232;-40
2022/08/11 12:28:23;;;;;;;;;;;;;;;;;;7370413;19;1092;-41
2022/08/11 12:30:51;;;;;;;;;;;;;;;;;;7371631;19;1253;-42
2022/08/11 12:33:19;;;;;;;;;;;;;;;;;;7373591;19;770;-41
2022/08/11 12:35:48;;;;;;;;;;;;;;;;;;7373971;19;860;-41
2022/08/11 12:38:16;;;;;;;;;;;;;;;;;;7369059;19;1845;-41
2022/08/11 12:46:06;;;;;;;;;;;;;;;;;;7372678;19;921;-42
2022/08/11 12:53:55;;;;;;;;;;;;;;;;;;7372632;19;782;-41
2022/08/11 13:07:05;;;;;;;;;;;;;;;;;;7371228;19;768;-42
2022/08/11 13:09:33;;;;;;;;;;;;;;;;;;7371593;19;1368;-41
2022/08/11 13:14:42;;;;;;;;;;;;;;;;;;7375972;19;1781;-41
2022/08/11 13:17:23;;;;;;;;;;;;;;;;;;7370401;19;1857;-42
2022/08/11 13:19:52;;;;;;;;;;;;;;;;;;7371312;19;1287;-43
2022/08/11 13:22:20;;;;;;;;;;;;;;;;;;7372183;19;860;-42
2022/08/11 13:24:48;;;;;;;;;;;;;;;;;;7372935;19;772;-40
2022/08/11 13:27:16;;;;;;;;;;;;;;;;;;7371728;19;818;-41
2022/08/11 13:29:45;;;;;;;;;;;;;;;;;;7370362;19;1971;-40
2022/08/11 13:32:14;;;;;;;;;;;;;;;;;;7375801;19;1939;-41
2022/08/11 13:34:42;;;;;;;;;;;;;;;;;;7376049;19;2212;-41
2022/08/11 13:37:10;;;;;;;;;;;;;;;;;;7370401;19;1854;-41
2022/08/11 13:39:39;;;;;;;;;;;;;;;;;;7370203;19;1298;-41
2022/08/11 13:42:07;;;;;;;;;;;;;;;;;;7375416;19;1432;-40
2022/08/11 13:44:35;;;;;;;;;;;;;;;;;;7372213;19;782;-41
2022/08/11 13:47:05;;;;;;;;;;;;;;;;;;7372724;19;1805;-41
2022/08/11 13:49:33;;;;;;;;;;;;;;;;;;7371302;19;1290;-42
2022/08/11 13:52:02;;;;;;;;;;;;;;;;;;7371184;19;819;-42
2022/08/11 13:54:30;;;;;;;;;;;;;;;;;;7372368;19;807;-41
2022/08/11 13:56:58;;;;;;;;;;;;;;;;;;7369098;19;1857;-41
2022/08/11 13:59:26;;;;;;;;;;;;;;;;;;7370489;19;850;-41
2022/08/11 14:01:54;;;;;;;;;;;;;;;;;;7371181;19;839;-42
2022/08/11 14:04:23;;;;;;;;;;;;;;;;;;7373022;19;1811;-41
2022/08/11 14:06:51;;;;;;;;;;;;;;;;;;7369842;19;882;-41
2022/08/11 14:09:19;;;;;;;;;;;;;;;;;;7370953;19;784;-41
2022/08/11 14:14:28;;;;;;;;;;;;;;;;;;7377073;19;997;-40
2022/08/11 14:16:56;;;;;;;;;;;;;;;;;;7374602;19;1984;-41
2022/08/11 14:19:24;;;;;;;;;;;;;;;;;;7373466;19;2009;-41
2022/08/11 14:24:33;;;;;;;;;;;;;;;;;;7376184;19;1933;-41
2022/08/11 14:27:01;;;;;;;;;;;;;;;;;;7370775;19;838;-42
2022/08/11 14:29:31;;;;;;;;;;;;;;;;;;7369979;19;1274;-41
2022/08/11 14:32:00;;;;;;;;;;;;;;;;;;7370473;19;709;-41
2022/08/11 14:34:29;;;;;;;;;;;;;;;;;;7371547;19;847;-41
2022/08/11 14:36:57;;;;;;;;;;;;;;;;;;7371205;19;1857;-41
2022/08/11 14:39:25;;;;;;;;;;;;;;;;;;7369487;19;970;-41
2022/08/11 14:47:15;;;;;;;;;;;;;;;;;;7371284;19;790;-42
2022/08/11 14:49:43;;;;;;;;;;;;;;;;;;7368551;19;1368;-40
2022/08/11 14:52:14;;;;;;;;;;;;;;;;;;7369913;19;1551;-42
2022/08/11 14:57:23;;;;;;;;;;;;;;;;;;7372659;19;1846;-41
2022/08/11 14:59:52;;;;;;;;;;;;;;;;;;7367273;19;1273;-41
2022/08/11 15:05:01;;;;;;;;;;;;;;;;;;7367806;19;903;-41
2022/08/11 15:07:31;;;;;;;;;;;;;;;;;;7368199;19;827;-41
2022/08/11 15:09:59;;;;;;;;;;;;;;;;;;7369166;19;1763;-40
2022/08/11 15:12:27;;;;;;;;;;;;;;;;;;7370242;19;1790;-40
2022/08/11 15:17:35;;;;;;;;;;;;;;;;;;7368021;19;1831;-41
2022/08/11 15:25:25;;;;;;;;;;;;;;;;;;7369417;19;1886;-41
2022/08/11 15:38:36;;;;;;;;;;;;;;;;;;7381850;19;1815;-40
2022/08/11 15:46:25;;;;;;;;;;;;;;;;;;7372827;19;820;-41
2022/08/11 15:48:53;;;;;;;;;;;;;;;;;;7374013;19;862;-44
2022/08/11 15:51:22;;;;;;;;;;;;;;;;;;7372260;19;1482;-41
2022/08/11 15:53:50;;;;;;;;;;;;;;;;;;7374546;19;885;-41
2022/08/11 15:56:18;;;;;;;;;;;;;;;;;;7371608;19;774;-40
2022/08/11 16:04:14;;;;;;;;;;;;;;;;;;7373299;19;798;-41
2022/08/11 16:06:42;;;;;;;;;;;;;;;;;;7372770;19;893;-43
2022/08/11 16:09:10;;;;;;;;;;;;;;;;;;7370693;19;1022;-41
2022/08/11 16:11:38;;;;;;;;;;;;;;;;;;7370772;19;1342;-40
2022/08/11 16:16:47;;;;;;;;;;;;;;;;;;7374858;19;1883;-40
2022/08/11 16:19:15;;;;;;;;;;;;;;;;;;7369334;19;1846;-40
2022/08/11 16:21:44;;;;;;;;;;;;;;;;;;7368980;19;1301;-40
2022/08/11 16:24:12;;;;;;;;;;;;;;;;;;7372437;19;814;-41
2022/08/11 16:26:40;;;;;;;;;;;;;;;;;;7372286;19;815;-41
2022/08/11 16:29:08;;;;;;;;;;;;;;;;;;7372933;19;862;-41
2022/08/11 16:31:36;;;;;;;;;;;;;;;;;;7372149;19;1856;-43
2022/08/11 16:38:33;;;;;;;;;;;;;;;;;;7375801;19;854;-41
2022/08/11 16:39:33;;;;;;;;;;;;;;;;;;7382458;19;1967;-40
2022/08/11 16:47:22;;;;;;;;;;;;;;;;;;7379467;19;861;-41
2022/08/11 16:49:51;;;;;;;;;;;;;;;;;;7381969;19;2024;-41
2022/08/11 16:52:19;;;;;;;;;;;;;;;;;;7383429;19;731;-42
2022/08/11 16:54:47;;;;;;;;;;;;;;;;;;7383323;19;950;-41
2022/08/11 16:59:56;;;;;;;;;;;;;;;;;;7373898;19;1286;-40
2022/08/11 17:13:12;;;;;;;;;;;;;;;;;;7369403;19;831;-44
2022/08/11 17:21:01;;;;;;;;;;;;;;;;;;7366499;19;3112;-43
2022/08/11 17:26:10;;;;;;;;;;;;;;;;;;7369572;19;1662;-42
2022/08/11 17:28:39;;;;;;;;;;;;;;;;;;7367510;19;864;-46
2022/08/11 17:36:28;;;;;;;;;;;;;;;;;;7367800;19;782;-47
2022/08/11 17:38:57;;;;;;;;;;;;;;;;;;7368225;19;1855;-42
2022/08/11 17:49:26;;;;;;;;;;;;;;;;;;7365487;19;849;-41
2022/08/11 17:59:59;;;;;;;;;;;;;;;;;;7366676;19;1334;-41
2022/08/11 18:05:08;;;;;;;;;;;;;;;;;;7367562;19;792;-45
